UIBB Airport Information

Runway Information
Runway 12 Length 10368 ft width 197 ft
Elevation 1606 ft Threshold 0 ft Heading 115
Runway 30 Length 10368 ft Width 197 ft
Elevation 1602 ft Threshold 0 ft Heading 295
Airport Frequencies
Type GND Name TAXIING Frequency 121.8 MHZ
Type MISC Name TRANSIT Frequency 131.8 MHZ
Type PMSV Name METEO Frequency 127.2 MHZ
Type TWR Name KRUG Frequency 118.1 MHZ
Airport Navaids
Type VOR-DME Name Bratsk Frequency 113600 KHZ
Type NDB Name Bratsk Frequency 374 KHZ
Type NDB Name Bratsk Frequency 374 KHZ
Airport Weather Information & NOTAM
ADDS - METARS form results

(1509 UTC 16 April 2021)
Data provider http://aviationweather.gov/metar/data/
 
METAR text: UIBB 161500Z AUTO 22006MPS 170V260 9999 // NSC 10/M03 Q1001 RMK QFE708/0944
Conditions at: UIBB (BRATSK/IRKUTSK , RU) observed 1500 UTC 16 April 2021
Temperature: 10.0°C (50°F)
Dewpoint: -3.0°C (27°F) [RH = 40%]
Pressure (altimeter): 29.56 inches Hg (1001.0 mb)
Winds: from the SW (220 degrees) at 14 MPH (12 knots; 6.2 m/s)
Visibility: 6 or more miles (10+ km)
Ceiling: at least 12,000 feet AGL
Clouds: sky clear below 12,000 feet AGL
Weather: no significant weather observed at this time

METAR text: UIBB 161430Z 23006G11MPS 200V270 9999 NSC 09/M02 Q1001 R30/912060 NOSIG RMK QFE709/0945
Conditions at: UIBB (BRATSK/IRKUTSK , RU) observed 1430 UTC 16 April 2021
Temperature: 9.0°C (48°F)
Dewpoint: -2.0°C (28°F) [RH = 46%]
Pressure (altimeter): 29.56 inches Hg (1001.0 mb)
Winds: from the SW (230 degrees) at 14 MPH (12 knots; 6.2 m/s)
gusting to 24 MPH (21 knots; 10.8 m/s)
Visibility: 6 or more miles (10+ km)
Ceiling: at least 12,000 feet AGL
Clouds: sky clear below 12,000 feet AGL
Weather: no significant weather observed at this time

Forecast for: UIBB (BRATSK/IRKUTSK , RU)
Text: TAF UIBB 161400Z 1615/1715 24006G14MPS 9999 SCT016CB
Forecast period: 1500 to 1700 UTC 16 April 2021
Forecast type: FROM: standard forecast or significant change
Winds: from the WSW (240 degrees) at 14 MPH (12 knots; 6.2 m/s)
gusting to 31 MPH (27 knots; 13.9 m/s)
Visibility: 6 or more miles (10+ km)
Ceiling: at least 12,000 feet AGL
Clouds: scattered clouds at 1600 feet AGL
Weather: no significant weather forecast for this period
Text: BECMG 1617/1619 33006G14MPS
Forecast period: 1700 UTC 16 April 2021 to 1500 UTC 17 April 2021
Forecast type: BECOMING: Conditions expected to become as follows by 1900 UTC 16 April 2021
Winds: from the NNW (330 degrees) at 14 MPH (12 knots; 6.2 m/s)
gusting to 31 MPH (27 knots; 13.9 m/s)
Visibility: 6 or more miles (10+ km)
Ceiling: at least 12,000 feet AGL
Clouds: scattered clouds at 1600 feet AGL
Weather: no significant weather forecast for this period
Text: TEMPO 1619/1709 1900 SHSNRA
Forecast period: 1900 UTC 16 April 2021 to 0900 UTC 17 April 2021
Forecast type: TEMPORARY: The following changes expected for less than half the time period
Visibility: 1.18 miles (1.90 km)
Ceiling: unknown
Clouds: missing
Weather: SHSN SHRA  (snow showers, rain showers)